In Rescue
 
Open Full Screen Window  High Contrast Mode
Wind Gusting 19 knots
14
October 25, 2021 3:20 PM CDT
Weather Information
Wind Direction
  110 °
Wind Speed
  14 kt (16 mph)
Wind Gust
  19 kt (22 mph)
Altimeter
30.10 in
Visibility
10 SM
Temperature
10° C
50° F
Dewpoint
-01° C
30° F
Humidity
47%
1hr Rain Fall
00.00 in.
24hr Rain Fall
00.00 in.
Sky Condition
Clear
VFR

METAR KDTL 252020Z AUTO 11014G19KT 10SM CLR 10/M01 A3010 RMK AO2

FAA Disclaimer: The data displayed is for advisory purposes only and is not to be used for flight planning or operations.